< Typhoon 199503 1995 Season Typhoon 199505 >
Typhoon 199504 (GARY)
General InformationTrack Information on Google MapsDetailed Wind InformationList of All Images || Disaster Info.ResourceGoogle EarthGE AnimationAtom FeedGeoJSON
Detalied Best Track (Time Zone = UTC)
Year Month Day Hour Lat. Long. Pressure (hPa) Wind (kt) Class Image Chart
1995 7 28 00 18.2 120.3 1000 0 2 Image Chart
1995 7 28 06 18.5 119.6 998 0 2 Image Chart
1995 7 28 12 18.2 119.2 998 0 2 Image Chart
1995 7 28 18 17.9 119.6 994 0 2 Image Chart
1995 7 29 00 18.9 119.4 994 0 2 Image Chart
1995 7 29 06 19.0 118.4 994 0 2 Image Chart
1995 7 29 12 18.9 118.0 992 35 3 Image Chart
1995 7 29 18 18.9 117.7 990 35 3 Image Chart
1995 7 30 00 19.0 117.5 990 35 3 Image Chart
1995 7 30 06 19.4 117.3 985 50 4 Image Chart
1995 7 30 12 20.0 117.0 985 50 4 Image Chart
1995 7 30 18 21.1 116.8 980 55 4 Image Chart
1995 7 31 00 22.6 116.7 980 55 4 Image Chart
1995 7 31 06 24.1 116.8 985 50 4 Image Chart
1995 7 31 12 25.9 116.7 994 35 3 Image Chart
1995 7 31 18 27.2 116.5 998 0 2 Image Chart
1995 8 1 00 29.0 116.5 1000 0 2 Image Chart
1995 8 1 06 30.5 116.3 1000 0 2 Image Chart
1995 8 1 12 31.5 116.0 1000 0 2 Image Chart
1995 8 1 18 31.8 116.0 1000 0 2 Image Chart
1995 8 2 00 32.0 116.0 1000 0 2 Image Chart
1995 8 2 06 32.0 116.0 1000 0 2 Image Chart
1995 8 2 12 32.0 116.0 1000 0 2 Image Chart
1995 8 2 18 32.0 116.0 1000 0 2 Image Chart
Japan Meteorological Agency Best Track Data | Correction Date : 1996-01-19
< Typhoon 199503 1995 Season Typhoon 199505 >

Help